Fedora — SLKU — position and weather

sailwx.info

Track history (hours):
 
Tides and Currents Weather Stations Pressure Air Temp Water Temp Dewpoint Dewpoint Depression Visibility Wind Speed Wind Dir Waves Ship Positions

Fedora

Last reported at 2016-Aug-25 15:14 UTC. Time now 2016-Aug-25 23:42 UTC.
Position N 43°22' W 125°07'.

Length 228 m; draft 10.2 m.

Type: Cargo ship. MMSI: 266259000.

Date/timePositionNaut miles runAvg speedWind from/ knotsBaromVisibWave heightAir tempDewpointWater temp
2016-Aug-25 15:14N 43°22' W 125°07'1116.4
2016-Aug-25 14:33N 43°33' W 125°08'1716.8
2016-Aug-25 13:34N 43°50' W 125°08'1716.8
2016-Aug-25 12:33N 44°07' W 125°09'1717.0
2016-Aug-25 11:33N 44°24' W 125°09'1716.7
2016-Aug-25 10:34N 44°40' W 125°10'1716.7
2016-Aug-25 09:34N 44°57' W 125°11'1716.6
2016-Aug-25 08:34N 45°14' W 125°11'1716.8
2016-Aug-25 07:34N 45°30' W 125°12'1717.1
2016-Aug-25 06:33N 45°47' W 125°12'3416.9
2016-Aug-25 04:34N 46°21' W 125°14'1716.8
2016-Aug-25 03:34N 46°38' W 125°15'1716.8
2016-Aug-25 02:34N 46°55' W 125°15'1716.6
2016-Aug-25 01:34N 47°11' W 125°17'1716.7
2016-Aug-25 00:33N 47°28' W 125°17'1716.9
2016-Aug-24 23:34N 47°45' W 125°18'1717.0
2016-Aug-24 22:33N 48°02' W 125°15'1717.3
2016-Aug-24 21:33N 48°19' W 125°10'1515.3
2016-Aug-24 20:33N 48°30' W 124°55'1818.2
2016-Aug-24 19:34N 48°26' W 124°28'1818.2
2016-Aug-24 18:33N 48°19' W 124°02'1817.8
2016-Aug-24 17:34N 48°15' W 123°36'1312.7
2016-Aug-24 16:33N 48°09' W 123°20'1615.7
2016-Aug-24 15:33N 48°12' W 122°57'1414.1
2016-Aug-24 14:33N 48°05' W 122°39'1615.7
2016-Aug-24 13:33N 47°51' W 122°27'1716.9
2016-Aug-24 12:33N 47°34' W 122°26'1414.2
2016-Aug-24 11:33N 47°20' W 122°26'5 0.9
2016-Aug-24 06:24N 47°16' W 122°23'0 0.0
2016-Aug-24 04:09N 47°16' W 122°23'0 0.0
2016-Aug-24 03:33N 47°16' W 122°23'0 0.0
2016-Aug-24 02:30N 47°16' W 122°23'0 0.0
2016-Aug-24 00:30N 47°16' W 122°23'0 0.2
2016-Aug-23 23:33N 47°16' W 122°23'4 3.6
2016-Aug-23 22:33N 47°18' W 122°27'1313.4
2016-Aug-23 21:34N 47°31' W 122°26'1616.3
2016-Aug-23 20:34N 47°47' W 122°27'1515.0
2016-Aug-23 19:33N 48°01' W 122°38'1413.7
2016-Aug-23 18:34N 48°11' W 122°51'1615.8
2016-Aug-23 17:34N 48°12' W 123°15'1111.2
2016-Aug-23 16:33N 48°13' W 123°32'1110.7
2016-Aug-23 15:34N 48°13' W 123°48'1414.0
2016-Aug-23 14:33N 48°17' W 124°08'1414.1
2016-Aug-23 13:34N 48°23' W 124°27'1414.2
2016-Aug-23 12:33N 48°28' W 124°47'1515.2
2016-Aug-23 11:33N 48°28' W 125°10'1514.6
2016-Aug-23 10:34N 48°32' W 125°31'1515.2
2016-Aug-23 09:34N 48°36' W 125°53'1514.5
2016-Aug-23 08:34N 48°40' W 126°14'1515.1
2016-Aug-23 07:33N 48°45' W 126°36'1515.0
2016-Aug-23 06:33N 48°49' W 126°58'  
Track history (hours):
 
Tides and Currents Weather Stations Pressure Air Temp Water Temp Dewpoint Dewpoint Depression Visibility Wind Speed Wind Dir Waves Ship Positions

Fedora

Last reported at 2016-Aug-25 15:14 UTC. Time now 2016-Aug-25 23:42 UTC.
Position N 43°22' W 125°07'.

Length 228 m; draft 10.2 m.

Type: Cargo ship. MMSI: 266259000.

Date/timePositionNaut miles runAvg speedWind from/ knotsBaromVisibWave heightAir tempDewpointWater temp
2016-Aug-25 15:14N 43°22' W 125°07'1116.4
2016-Aug-25 14:33N 43°33' W 125°08'1716.8
2016-Aug-25 13:34N 43°50' W 125°08'1716.8
2016-Aug-25 12:33N 44°07' W 125°09'1717.0
2016-Aug-25 11:33N 44°24' W 125°09'1716.7
2016-Aug-25 10:34N 44°40' W 125°10'1716.7
2016-Aug-25 09:34N 44°57' W 125°11'1716.6
2016-Aug-25 08:34N 45°14' W 125°11'1716.8
2016-Aug-25 07:34N 45°30' W 125°12'1717.1
2016-Aug-25 06:33N 45°47' W 125°12'3416.9
2016-Aug-25 04:34N 46°21' W 125°14'1716.8
2016-Aug-25 03:34N 46°38' W 125°15'1716.8
2016-Aug-25 02:34N 46°55' W 125°15'1716.6
2016-Aug-25 01:34N 47°11' W 125°17'1716.7
2016-Aug-25 00:33N 47°28' W 125°17'1716.9
2016-Aug-24 23:34N 47°45' W 125°18'1717.0
2016-Aug-24 22:33N 48°02' W 125°15'1717.3
2016-Aug-24 21:33N 48°19' W 125°10'1515.3
2016-Aug-24 20:33N 48°30' W 124°55'1818.2
2016-Aug-24 19:34N 48°26' W 124°28'1818.2
2016-Aug-24 18:33N 48°19' W 124°02'1817.8
2016-Aug-24 17:34N 48°15' W 123°36'1312.7
2016-Aug-24 16:33N 48°09' W 123°20'1615.7
2016-Aug-24 15:33N 48°12' W 122°57'1414.1
2016-Aug-24 14:33N 48°05' W 122°39'1615.7
2016-Aug-24 13:33N 47°51' W 122°27'1716.9
2016-Aug-24 12:33N 47°34' W 122°26'1414.2
2016-Aug-24 11:33N 47°20' W 122°26'5 0.9
2016-Aug-24 06:24N 47°16' W 122°23'0 0.0
2016-Aug-24 04:09N 47°16' W 122°23'0 0.0
2016-Aug-24 03:33N 47°16' W 122°23'0 0.0
2016-Aug-24 02:30N 47°16' W 122°23'0 0.0
2016-Aug-24 00:30N 47°16' W 122°23'0 0.2
2016-Aug-23 23:33N 47°16' W 122°23'4 3.6
2016-Aug-23 22:33N 47°18' W 122°27'1313.4
2016-Aug-23 21:34N 47°31' W 122°26'1616.3
2016-Aug-23 20:34N 47°47' W 122°27'1515.0
2016-Aug-23 19:33N 48°01' W 122°38'1413.7
2016-Aug-23 18:34N 48°11' W 122°51'1615.8
2016-Aug-23 17:34N 48°12' W 123°15'1111.2
2016-Aug-23 16:33N 48°13' W 123°32'1110.7
2016-Aug-23 15:34N 48°13' W 123°48'1414.0
2016-Aug-23 14:33N 48°17' W 124°08'1414.1
2016-Aug-23 13:34N 48°23' W 124°27'1414.2
2016-Aug-23 12:33N 48°28' W 124°47'1515.2
2016-Aug-23 11:33N 48°28' W 125°10'1514.6
2016-Aug-23 10:34N 48°32' W 125°31'1515.2
2016-Aug-23 09:34N 48°36' W 125°53'1514.5
2016-Aug-23 08:34N 48°40' W 126°14'1515.1
2016-Aug-23 07:33N 48°45' W 126°36'1515.0
2016-Aug-23 06:33N 48°49' W 126°58'  

Dump ship's entire track history